Terminal Aerodrome Forecast
Issued by NWS

Home | Current Version | Previous Version | Text Only | Print | Product List | Glossary On
Versions: 1 2 3 4 5 6 7 8 9 10 11 12 13 14 15 16 17 18
000
FTUS46 KPDT 282300
TAFBDN
TAF
KBDN 282320Z 2900/2924 21020G30KT P6SM -SHRA OVC060
     FM290300 21012G20KT P6SM -SHRA OVC050
     FM291000 25010KT P6SM BKN070
     FM291800 29011KT P6SM SCT070=

USA.gov is the U.S. government's official web portal to all federal, state and local government web resources and services.